createdAt,value
2019-03-16T00:00:31.507Z,0.00
2019-03-16T00:01:31.492Z,0.00
2019-03-16T00:02:31.430Z,0.00
2019-03-16T00:03:31.411Z,0.00
2019-03-16T00:04:31.429Z,0.00
2019-03-16T00:05:31.422Z,0.00
2019-03-16T00:06:32.178Z,0.00
2019-03-16T00:07:33.459Z,0.00
2019-03-16T00:08:32.176Z,0.00
2019-03-16T00:09:31.347Z,0.00
2019-03-16T00:10:32.177Z,0.00
2019-03-16T00:11:32.178Z,0.00
2019-03-16T00:12:31.323Z,0.00
2019-03-16T00:13:31.310Z,0.00
2019-03-16T00:14:31.336Z,0.00
2019-03-16T00:15:31.322Z,0.00
2019-03-16T00:16:32.223Z,0.00
2019-03-16T00:17:31.308Z,0.00
2019-03-16T00:18:31.263Z,0.00
2019-03-16T00:19:31.246Z,0.00
2019-03-16T00:20:32.167Z,0.00
2019-03-16T00:21:31.227Z,0.00
2019-03-16T00:22:31.227Z,0.00
2019-03-16T00:23:31.275Z,0.00
2019-03-16T00:24:31.195Z,0.00
2019-03-16T00:25:32.169Z,0.00
2019-03-16T00:26:31.168Z,0.00
2019-03-16T00:27:31.310Z,0.00
2019-03-16T00:28:31.183Z,0.00
2019-03-16T00:29:31.139Z,0.00
2019-03-16T00:30:31.186Z,0.00
2019-03-16T00:31:31.139Z,0.00
2019-03-16T00:32:31.122Z,0.00
2019-03-16T00:33:31.100Z,0.00
2019-03-16T00:34:31.076Z,0.00
2019-03-16T00:35:31.062Z,0.00
2019-03-16T00:36:31.745Z,0.00
2019-03-16T00:37:31.063Z,0.00
2019-03-16T00:38:31.030Z,0.00
2019-03-16T00:39:31.021Z,0.00
2019-03-16T00:40:31.014Z,0.00
2019-03-16T00:41:30.996Z,0.00
2019-03-16T00:42:31.013Z,0.00
2019-03-16T00:43:30.984Z,0.00
2019-03-16T00:44:30.968Z,0.00
2019-03-16T00:45:30.984Z,0.00
2019-03-16T00:46:30.948Z,0.00
2019-03-16T00:47:31.003Z,0.00
2019-03-16T00:48:31.657Z,0.00
2019-03-16T00:49:30.923Z,0.00
2019-03-16T00:50:30.907Z,0.00
2019-03-16T00:51:30.909Z,0.00
2019-03-16T00:52:30.903Z,0.00
2019-03-16T00:53:30.867Z,0.00
2019-03-16T00:54:30.862Z,0.00
2019-03-16T00:55:30.850Z,0.00
2019-03-16T00:56:30.881Z,0.00
2019-03-16T00:57:30.858Z,0.00
2019-03-16T00:58:30.849Z,0.00
2019-03-16T00:59:30.813Z,0.00
2019-03-16T01:00:30.803Z,0.00
2019-03-16T01:01:30.800Z,0.00
2019-03-16T01:02:32.832Z,0.00
2019-03-16T01:03:31.647Z,0.00
2019-03-16T01:04:30.753Z,0.00
2019-03-16T01:05:30.772Z,0.00
2019-03-16T01:06:30.758Z,0.00
2019-03-16T01:07:30.763Z,0.00
2019-03-16T01:08:30.730Z,0.00
2019-03-16T01:09:30.701Z,0.00
2019-03-16T01:10:30.711Z,0.00
2019-03-16T01:11:31.646Z,0.00
2019-03-16T01:12:30.695Z,0.00
2019-03-16T01:13:30.681Z,0.00
2019-03-16T01:14:30.648Z,0.00
2019-03-16T01:15:30.633Z,0.00
2019-03-16T01:16:30.635Z,0.00
2019-03-16T01:17:30.634Z,0.00
2019-03-16T01:18:31.179Z,0.00
2019-03-16T01:19:30.619Z,0.00
2019-03-16T01:20:30.603Z,0.00
2019-03-16T01:21:30.609Z,0.00
2019-03-16T01:22:30.549Z,0.00
2019-03-16T01:23:30.544Z,0.00
2019-03-16T01:24:30.572Z,0.00
2019-03-16T01:25:30.558Z,0.00
2019-03-16T01:26:30.513Z,0.00
2019-03-16T01:27:30.559Z,0.00
2019-03-16T01:28:30.521Z,0.00
2019-03-16T01:29:30.478Z,0.00
2019-03-16T01:30:30.482Z,0.00
2019-03-16T01:31:30.452Z,0.00
2019-03-16T01:32:40.178Z,0.00
2019-03-16T01:33:31.466Z,0.00
2019-03-16T01:34:30.418Z,0.00
2019-03-16T01:35:30.450Z,0.00
2019-03-16T01:36:30.402Z,0.00
2019-03-16T01:37:30.426Z,0.00
2019-03-16T01:38:30.406Z,0.00
2019-03-16T01:39:31.123Z,0.00
2019-03-16T01:40:30.437Z,0.00
2019-03-16T01:41:30.421Z,0.00
2019-03-16T01:42:30.373Z,0.00
2019-03-16T01:43:30.363Z,0.00
2019-03-16T01:44:31.124Z,0.00
2019-03-16T01:45:30.326Z,0.00
2019-03-16T01:46:30.342Z,0.00
2019-03-16T01:47:30.313Z,0.00
2019-03-16T01:48:30.316Z,0.00
2019-03-16T01:49:30.254Z,0.00
2019-03-16T01:50:30.252Z,0.00
2019-03-16T01:51:30.234Z,0.00
2019-03-16T01:52:30.244Z,0.00
2019-03-16T01:53:30.240Z,0.00
2019-03-16T01:54:30.205Z,0.00
2019-03-16T01:55:30.253Z,0.00
2019-03-16T01:56:31.158Z,0.00
2019-03-16T01:57:30.193Z,0.00
2019-03-16T01:58:30.161Z,0.00
2019-03-16T01:59:30.164Z,0.00
2019-03-16T02:00:30.143Z,0.00
2019-03-16T02:01:30.127Z,0.00
2019-03-16T02:02:30.126Z,0.00
2019-03-16T02:03:30.128Z,0.00
2019-03-16T02:04:30.659Z,0.00
2019-03-16T02:05:30.079Z,0.00
2019-03-16T02:06:30.065Z,0.00
2019-03-16T02:07:30.082Z,0.00
2019-03-16T02:08:30.155Z,0.00
2019-03-16T02:09:30.036Z,0.00
2019-03-16T02:10:30.660Z,0.00
2019-03-16T02:11:30.054Z,0.00
2019-03-16T02:12:29.999Z,0.00
2019-03-16T02:13:30.003Z,0.00
2019-03-16T02:14:30.681Z,0.00
2019-03-16T02:15:29.999Z,0.00
2019-03-16T02:16:29.972Z,0.00
2019-03-16T02:17:29.976Z,0.00
2019-03-16T02:18:30.601Z,0.00
2019-03-16T02:19:29.958Z,0.00
2019-03-16T02:20:30.603Z,0.00
2019-03-16T02:21:29.986Z,0.00
2019-03-16T02:22:29.963Z,0.00
2019-03-16T02:23:29.887Z,0.00
2019-03-16T02:24:29.867Z,0.00
2019-03-16T02:25:29.884Z,0.00
2019-03-16T02:26:29.859Z,0.00
2019-03-16T02:27:29.846Z,0.00
2019-03-16T02:28:29.838Z,0.00
2019-03-16T02:29:29.818Z,0.00
2019-03-16T02:30:29.913Z,0.00
2019-03-16T02:31:29.800Z,0.00
2019-03-16T02:32:30.594Z,0.00
2019-03-16T02:33:29.793Z,0.00
2019-03-16T02:34:29.824Z,0.00
2019-03-16T02:35:29.749Z,0.00
2019-03-16T02:36:30.601Z,0.00
2019-03-16T02:37:29.733Z,0.00
2019-03-16T02:38:29.717Z,0.00
2019-03-16T02:39:29.718Z,0.00
2019-03-16T02:40:29.701Z,0.00
2019-03-16T02:41:29.717Z,0.00
2019-03-16T02:42:30.638Z,0.00
2019-03-16T02:43:29.696Z,0.00
2019-03-16T02:44:29.691Z,0.00
2019-03-16T02:45:29.659Z,0.00
2019-03-16T02:46:30.639Z,0.00
2019-03-16T02:47:29.614Z,0.00
2019-03-16T02:48:29.636Z,0.00
2019-03-16T02:49:29.643Z,0.00
2019-03-16T02:50:29.594Z,0.00
2019-03-16T02:51:29.576Z,0.00
2019-03-16T02:52:30.676Z,0.00
2019-03-16T02:53:29.563Z,0.00
2019-03-16T02:54:29.563Z,0.00
2019-03-16T02:55:29.546Z,0.00
2019-03-16T02:56:29.529Z,0.00
2019-03-16T02:57:29.516Z,0.00
2019-03-16T02:58:29.539Z,0.00
2019-03-16T02:59:29.531Z,0.00
2019-03-16T03:00:30.080Z,0.00
2019-03-16T03:01:29.501Z,0.00
2019-03-16T03:02:29.488Z,0.00
2019-03-16T03:03:30.289Z,0.00
2019-03-16T03:04:29.473Z,0.00
2019-03-16T03:05:29.425Z,0.00
2019-03-16T03:06:29.439Z,0.00
2019-03-16T03:07:29.425Z,0.00
2019-03-16T03:08:29.433Z,0.00
2019-03-16T03:09:29.389Z,0.00
2019-03-16T03:10:29.394Z,0.00
2019-03-16T03:11:29.397Z,0.00
2019-03-16T03:12:30.120Z,0.00
2019-03-16T03:13:30.195Z,0.00
2019-03-16T03:14:29.322Z,0.00
2019-03-16T03:15:29.475Z,0.00
2019-03-16T03:16:29.382Z,0.00
2019-03-16T03:17:29.338Z,0.00
2019-03-16T03:18:30.131Z,0.00
2019-03-16T03:19:29.305Z,0.00
2019-03-16T03:20:29.272Z,0.00
2019-03-16T03:21:29.254Z,0.00
2019-03-16T03:22:29.362Z,0.00
2019-03-16T03:23:29.261Z,0.00
2019-03-16T03:24:29.216Z,0.00
2019-03-16T03:25:29.269Z,0.00
2019-03-16T03:26:29.196Z,0.00
2019-03-16T03:27:29.180Z,0.00
2019-03-16T03:28:30.070Z,0.00
2019-03-16T03:29:29.215Z,0.00
2019-03-16T03:30:29.227Z,0.00
2019-03-16T03:31:29.136Z,0.00
2019-03-16T03:32:29.180Z,0.00
2019-03-16T03:33:56.236Z,0.00
2019-03-16T03:34:30.136Z,0.00
2019-03-16T03:35:29.719Z,0.00
2019-03-16T03:36:29.076Z,0.00
2019-03-16T03:37:29.075Z,0.00
2019-03-16T03:38:29.061Z,0.00
2019-03-16T03:39:29.062Z,0.00
2019-03-16T03:40:29.061Z,0.00
2019-03-16T03:41:29.044Z,0.00
2019-03-16T03:42:29.024Z,0.00
2019-03-16T03:43:29.088Z,0.00
2019-03-16T03:44:29.001Z,0.00
2019-03-16T03:45:28.993Z,0.00
2019-03-16T03:46:32.205Z,0.00
2019-03-16T03:47:29.049Z,0.00
2019-03-16T03:48:28.972Z,0.00
2019-03-16T03:49:28.954Z,0.00
2019-03-16T03:50:28.968Z,0.00
2019-03-16T03:51:28.920Z,0.00
2019-03-16T03:52:28.942Z,0.00
2019-03-16T03:53:28.921Z,0.00
2019-03-16T03:54:28.893Z,0.00
2019-03-16T03:55:28.949Z,0.00
2019-03-16T03:56:28.895Z,0.00
2019-03-16T03:57:28.846Z,0.00
2019-03-16T03:58:28.875Z,0.00
2019-03-16T03:59:28.830Z,0.00
2019-03-16T04:00:28.827Z,0.00
2019-03-16T04:01:28.831Z,0.00
2019-03-16T04:02:28.808Z,0.00
2019-03-16T04:03:29.549Z,0.00
2019-03-16T04:04:28.785Z,0.00
2019-03-16T04:05:28.815Z,0.00
2019-03-16T04:06:28.830Z,0.00
2019-03-16T04:07:28.737Z,0.00
2019-03-16T04:08:28.724Z,0.00
2019-03-16T04:09:28.724Z,0.00
2019-03-16T04:10:28.773Z,0.00
2019-03-16T04:11:28.723Z,0.00
2019-03-16T04:12:28.687Z,0.00
2019-03-16T04:13:29.538Z,0.00
2019-03-16T04:14:28.664Z,0.00
2019-03-16T04:15:28.658Z,0.00
2019-03-16T04:16:28.669Z,0.00
2019-03-16T04:17:28.647Z,0.00
2019-03-16T04:18:28.661Z,0.00
2019-03-16T04:19:28.645Z,0.00
2019-03-16T04:20:28.603Z,0.00
2019-03-16T04:21:28.633Z,0.00
2019-03-16T04:22:28.570Z,0.00
2019-03-16T04:23:28.585Z,0.00
2019-03-16T04:24:28.552Z,0.00
2019-03-16T04:25:28.537Z,0.00
2019-03-16T04:26:28.586Z,0.00
2019-03-16T04:27:29.097Z,0.00
2019-03-16T04:28:28.551Z,0.00
2019-03-16T04:29:28.499Z,0.00
2019-03-16T04:30:29.029Z,0.00
2019-03-16T04:31:28.473Z,0.00
2019-03-16T04:32:28.477Z,0.00
2019-03-16T04:33:28.513Z,0.00
2019-03-16T04:34:29.915Z,0.00
2019-03-16T04:35:28.431Z,0.00
2019-03-16T04:36:28.420Z,0.00
2019-03-16T04:37:28.416Z,0.00
2019-03-16T04:38:28.447Z,0.00
2019-03-16T04:39:28.449Z,0.00
2019-03-16T04:40:28.386Z,0.00
2019-03-16T04:41:28.374Z,0.00
2019-03-16T04:42:28.349Z,0.00
2019-03-16T04:43:28.371Z,0.00
2019-03-16T04:44:28.416Z,0.00
2019-03-16T04:45:29.026Z,0.00
2019-03-16T04:46:31.271Z,0.00
2019-03-16T04:47:28.309Z,0.00
2019-03-16T04:48:28.296Z,0.00
2019-03-16T04:49:29.026Z,0.00
2019-03-16T04:50:29.062Z,0.00
2019-03-16T04:51:28.263Z,0.00
2019-03-16T04:52:28.278Z,0.00
2019-03-16T04:53:28.236Z,0.00
2019-03-16T04:54:28.230Z,0.00
2019-03-16T04:55:28.237Z,0.00
2019-03-16T04:56:28.209Z,0.00
2019-03-16T04:57:28.214Z,0.00
2019-03-16T04:58:28.216Z,0.00
2019-03-16T04:59:28.173Z,0.00
2019-03-16T05:00:28.183Z,0.00
2019-03-16T05:01:28.173Z,0.00
2019-03-16T05:02:28.136Z,0.00
2019-03-16T05:03:28.126Z,0.00
2019-03-16T05:04:41.702Z,0.00
2019-03-16T05:05:30.017Z,0.00
2019-03-16T05:06:28.158Z,0.00
2019-03-16T05:07:28.113Z,0.00
2019-03-16T05:08:28.112Z,0.00
2019-03-16T05:09:28.067Z,0.00
2019-03-16T05:10:28.049Z,4.00
2019-03-16T05:11:28.050Z,4.00
2019-03-16T05:12:28.050Z,4.00
2019-03-16T05:13:28.019Z,0.00
2019-03-16T05:14:28.015Z,4.00
2019-03-16T05:15:28.548Z,4.00
2019-03-16T05:16:27.988Z,4.00
2019-03-16T05:17:28.004Z,8.00
2019-03-16T05:18:27.975Z,8.00
2019-03-16T05:19:28.020Z,8.00
2019-03-16T05:20:27.946Z,4.00
2019-03-16T05:21:27.935Z,8.00
2019-03-16T05:22:27.927Z,8.00
2019-03-16T05:23:27.939Z,8.00
2019-03-16T05:24:27.922Z,12.00
2019-03-16T05:25:28.548Z,8.00
2019-03-16T05:26:27.948Z,12.00
2019-03-16T05:27:27.900Z,8.00
2019-03-16T05:28:27.900Z,8.00
2019-03-16T05:29:27.883Z,12.00
2019-03-16T05:30:27.866Z,8.00
2019-03-16T05:31:27.830Z,12.00
2019-03-16T05:32:27.819Z,12.00
2019-03-16T05:33:27.837Z,12.00
2019-03-16T05:34:27.822Z,16.00
2019-03-16T05:35:27.803Z,16.00
2019-03-16T05:36:27.790Z,20.00
2019-03-16T05:37:27.757Z,24.00
2019-03-16T05:38:27.751Z,24.00
2019-03-16T05:39:27.765Z,28.00
2019-03-16T05:40:27.728Z,32.00
2019-03-16T05:41:27.715Z,36.00
2019-03-16T05:42:28.495Z,36.00
2019-03-16T05:43:27.702Z,40.00
2019-03-16T05:44:27.714Z,44.00
2019-03-16T05:45:27.743Z,44.00
2019-03-16T05:46:27.667Z,44.00
2019-03-16T05:47:27.654Z,44.00
2019-03-16T05:48:27.647Z,44.00
2019-03-16T05:49:27.635Z,44.00
2019-03-16T05:50:27.668Z,44.00
2019-03-16T05:51:27.605Z,40.00
2019-03-16T05:52:27.601Z,40.00
2019-03-16T05:53:27.589Z,40.00
2019-03-16T05:54:27.608Z,44.00
2019-03-16T05:55:27.604Z,36.00
2019-03-16T05:56:27.605Z,40.00
2019-03-16T05:57:27.546Z,32.00
2019-03-16T05:58:27.530Z,32.00
2019-03-16T05:59:28.032Z,28.00
2019-03-16T06:00:27.579Z,28.00
2019-03-16T06:01:27.536Z,28.00
2019-03-16T06:02:27.497Z,28.00
2019-03-16T06:03:27.485Z,32.00
2019-03-16T06:04:27.468Z,40.00
2019-03-16T06:05:27.456Z,44.00
2019-03-16T06:06:27.657Z,56.00
2019-03-16T06:07:27.469Z,56.00
2019-03-16T06:08:27.431Z,56.00
2019-03-16T06:09:27.417Z,56.00
2019-03-16T06:10:27.438Z,56.00
2019-03-16T06:11:27.438Z,52.00
2019-03-16T06:12:27.382Z,52.00
2019-03-16T06:13:27.370Z,48.00
2019-03-16T06:14:27.362Z,52.00
2019-03-16T06:15:27.349Z,52.00
2019-03-16T06:16:27.368Z,56.00
2019-03-16T06:17:27.386Z,60.00
2019-03-16T06:18:27.317Z,64.00
2019-03-16T06:19:27.317Z,64.00
2019-03-16T06:20:27.298Z,68.00
2019-03-16T06:21:27.289Z,72.00
2019-03-16T06:22:27.315Z,76.00
2019-03-16T06:23:27.258Z,72.00
2019-03-16T06:24:28.263Z,76.00
2019-03-16T06:25:27.261Z,80.00
2019-03-16T06:26:27.238Z,84.00
2019-03-16T06:27:27.221Z,84.00
2019-03-16T06:28:27.224Z,88.00
2019-03-16T06:29:27.211Z,88.00
2019-03-16T06:30:27.245Z,92.00
2019-03-16T06:31:27.179Z,96.00
2019-03-16T06:32:27.163Z,96.00
2019-03-16T06:33:27.213Z,96.00
2019-03-16T06:34:27.191Z,96.00
2019-03-16T06:35:29.426Z,100.00
2019-03-16T06:36:27.142Z,108.00
2019-03-16T06:37:27.132Z,116.00
2019-03-16T06:38:27.103Z,124.00
2019-03-16T06:39:27.088Z,136.00
2019-03-16T06:40:27.103Z,140.00
2019-03-16T06:41:27.112Z,144.00
2019-03-16T06:42:27.094Z,144.00
2019-03-16T06:43:27.058Z,148.00
2019-03-16T06:44:27.038Z,148.00
2019-03-16T06:45:27.071Z,148.00
2019-03-16T06:46:27.011Z,152.00
2019-03-16T06:47:27.014Z,152.00
2019-03-16T06:48:26.996Z,144.00
2019-03-16T06:49:26.979Z,140.00
2019-03-16T06:50:27.001Z,132.00
2019-03-16T06:51:26.965Z,124.00
2019-03-16T06:52:26.985Z,124.00
2019-03-16T06:53:26.939Z,140.00
2019-03-16T06:54:26.966Z,168.00
2019-03-16T06:55:26.919Z,208.00
2019-03-16T06:56:26.927Z,248.00
2019-03-16T06:57:26.900Z,264.00
2019-03-16T06:58:26.891Z,248.00
2019-03-16T06:59:26.888Z,224.00
2019-03-16T07:00:26.936Z,208.00
2019-03-16T07:01:26.893Z,204.00
2019-03-16T07:02:26.842Z,216.00
2019-03-16T07:03:26.870Z,248.00
2019-03-16T07:04:26.837Z,276.00
2019-03-16T07:05:37.701Z,296.00
2019-03-16T07:06:27.830Z,292.00
2019-03-16T07:07:27.441Z,284.00
2019-03-16T07:08:26.784Z,268.00
2019-03-16T07:09:26.766Z,276.00
2019-03-16T07:10:26.764Z,292.00
2019-03-16T07:11:26.788Z,300.00
2019-03-16T07:12:26.751Z,308.00
2019-03-16T07:13:26.724Z,332.00
2019-03-16T07:14:26.734Z,348.00
2019-03-16T07:15:26.704Z,332.00
2019-03-16T07:16:26.701Z,316.00
2019-03-16T07:17:26.702Z,304.00
2019-03-16T07:18:26.661Z,280.00
2019-03-16T07:19:26.681Z,268.00
2019-03-16T07:20:26.645Z,268.00
2019-03-16T07:21:26.631Z,280.00
2019-03-16T07:22:26.682Z,288.00
2019-03-16T07:23:26.763Z,292.00
2019-03-16T07:24:26.614Z,284.00
2019-03-16T07:25:26.637Z,284.00
2019-03-16T07:26:26.584Z,284.00
2019-03-16T07:27:26.750Z,292.00
2019-03-16T07:28:26.608Z,300.00
2019-03-16T07:29:26.552Z,300.00
2019-03-16T07:30:26.536Z,308.00
2019-03-16T07:31:26.539Z,312.00
2019-03-16T07:32:26.517Z,312.00
2019-03-16T07:33:26.525Z,324.00
2019-03-16T07:34:26.587Z,332.00
2019-03-16T07:35:26.480Z,328.00
2019-03-16T07:36:26.554Z,328.00
2019-03-16T07:37:26.459Z,324.00
2019-03-16T07:38:26.514Z,328.00
2019-03-16T07:39:26.457Z,332.00
2019-03-16T07:40:26.446Z,332.00
2019-03-16T07:41:26.416Z,332.00
2019-03-16T07:42:26.429Z,328.00
2019-03-16T07:43:26.391Z,324.00
2019-03-16T07:44:26.412Z,320.00
2019-03-16T07:45:26.369Z,320.00
2019-03-16T07:46:26.372Z,316.00
2019-03-16T07:47:26.351Z,332.00
2019-03-16T07:48:26.344Z,348.00
2019-03-16T07:49:26.342Z,348.00
2019-03-16T07:50:26.335Z,332.00
2019-03-16T07:51:26.322Z,320.00
2019-03-16T07:52:26.294Z,316.00
2019-03-16T07:53:26.353Z,312.00
2019-03-16T07:54:26.963Z,312.00
2019-03-16T07:55:26.277Z,328.00
2019-03-16T07:56:26.244Z,352.00
2019-03-16T07:57:39.224Z,372.00
2019-03-16T07:58:27.248Z,372.00
2019-03-16T07:59:26.316Z,372.00
2019-03-16T08:00:26.310Z,368.00
2019-03-16T08:01:26.195Z,364.00
2019-03-16T08:02:26.283Z,352.00
2019-03-16T08:03:26.172Z,348.00
2019-03-16T08:04:26.159Z,348.00
2019-03-16T08:05:26.179Z,352.00
2019-03-16T08:06:26.142Z,356.00
2019-03-16T08:07:26.127Z,360.00
2019-03-16T08:08:26.127Z,364.00
2019-03-16T08:09:26.110Z,368.00
2019-03-16T08:10:26.118Z,380.00
2019-03-16T08:11:26.110Z,388.00
2019-03-16T08:12:26.084Z,396.00
2019-03-16T08:13:26.092Z,388.00
2019-03-16T08:14:26.050Z,372.00
2019-03-16T08:15:28.151Z,352.00
2019-03-16T08:16:26.033Z,348.00
2019-03-16T08:17:26.053Z,360.00
2019-03-16T08:18:26.017Z,380.00
2019-03-16T08:19:25.999Z,372.00
2019-03-16T08:20:25.984Z,384.00
2019-03-16T08:21:25.986Z,384.00
2019-03-16T08:22:25.962Z,388.00
2019-03-16T08:23:25.956Z,388.00
2019-03-16T08:24:25.946Z,364.00
2019-03-16T08:25:25.925Z,368.00
2019-03-16T08:26:25.970Z,392.00
2019-03-16T08:27:25.913Z,428.00
2019-03-16T08:28:25.892Z,448.00
2019-03-16T08:29:25.898Z,464.00
2019-03-16T08:30:25.892Z,464.00
2019-03-16T08:31:25.892Z,456.00
2019-03-16T08:32:25.863Z,432.00
2019-03-16T08:33:25.947Z,424.00
2019-03-16T08:34:25.844Z,424.00
2019-03-16T08:35:25.835Z,432.00
2019-03-16T08:36:25.840Z,436.00
2019-03-16T08:37:25.800Z,424.00
2019-03-16T08:38:25.792Z,420.00
2019-03-16T08:39:25.781Z,436.00
2019-03-16T08:40:25.758Z,448.00
2019-03-16T08:41:25.802Z,456.00
2019-03-16T08:42:25.743Z,444.00
2019-03-16T08:43:25.726Z,420.00
2019-03-16T08:44:25.722Z,400.00
2019-03-16T08:45:25.715Z,392.00
2019-03-16T08:46:25.710Z,396.00
2019-03-16T08:47:25.712Z,408.00
2019-03-16T08:48:25.681Z,424.00
2019-03-16T08:49:25.663Z,424.00
2019-03-16T08:50:25.671Z,416.00
2019-03-16T08:51:25.649Z,400.00
2019-03-16T08:52:25.674Z,400.00
2019-03-16T08:53:25.632Z,396.00
2019-03-16T08:54:25.605Z,388.00
2019-03-16T08:55:25.604Z,384.00
2019-03-16T08:56:25.599Z,380.00
2019-03-16T08:57:25.607Z,376.00
2019-03-16T08:58:25.588Z,372.00
2019-03-16T08:59:25.578Z,368.00
2019-03-16T09:00:25.541Z,368.00
2019-03-16T09:01:25.528Z,360.00
2019-03-16T09:02:25.529Z,364.00
2019-03-16T09:03:25.529Z,364.00
2019-03-16T09:04:25.538Z,360.00
2019-03-16T09:05:25.545Z,352.00
2019-03-16T09:06:25.496Z,352.00
2019-03-16T09:07:25.465Z,348.00
2019-03-16T09:08:25.451Z,344.00
2019-03-16T09:09:25.446Z,340.00
2019-03-16T09:10:25.438Z,336.00
2019-03-16T09:11:25.466Z,336.00
2019-03-16T09:12:25.411Z,340.00
2019-03-16T09:13:25.407Z,340.00
2019-03-16T09:14:25.392Z,332.00
2019-03-16T09:15:25.380Z,340.00
2019-03-16T09:16:25.435Z,348.00
2019-03-16T09:17:25.370Z,364.00
2019-03-16T09:18:25.349Z,372.00
2019-03-16T09:19:25.344Z,376.00
2019-03-16T09:20:25.327Z,388.00
2019-03-16T09:21:25.315Z,400.00
2019-03-16T09:22:25.329Z,408.00
2019-03-16T09:23:25.314Z,404.00
2019-03-16T09:24:25.295Z,404.00
2019-03-16T09:25:25.865Z,412.00
2019-03-16T09:26:25.272Z,420.00
2019-03-16T09:27:31.254Z,412.00
2019-03-16T09:28:26.255Z,396.00
2019-03-16T09:29:25.230Z,408.00
2019-03-16T09:30:25.223Z,424.00
2019-03-16T09:31:25.239Z,440.00
2019-03-16T09:32:25.191Z,464.00
2019-03-16T09:33:25.282Z,480.00
2019-03-16T09:34:25.189Z,472.00
2019-03-16T09:35:25.163Z,456.00
2019-03-16T09:36:25.152Z,448.00
2019-03-16T09:37:25.147Z,432.00
2019-03-16T09:38:25.174Z,436.00
2019-03-16T09:39:25.122Z,432.00
2019-03-16T09:40:25.107Z,444.00
2019-03-16T09:41:25.101Z,468.00
2019-03-16T09:42:28.866Z,480.00
2019-03-16T09:43:25.079Z,488.00
2019-03-16T09:44:25.067Z,500.00
2019-03-16T09:45:25.055Z,504.00
2019-03-16T09:46:25.046Z,512.00
2019-03-16T09:47:25.039Z,536.00
2019-03-16T09:48:25.023Z,512.00
2019-03-16T09:49:25.010Z,484.00
2019-03-16T09:50:25.026Z,496.00
2019-03-16T09:51:24.987Z,496.00
2019-03-16T09:52:25.023Z,476.00
2019-03-16T09:53:24.967Z,452.00
2019-03-16T09:54:24.987Z,404.00
2019-03-16T09:55:25.904Z,368.00
2019-03-16T09:56:24.945Z,364.00
2019-03-16T09:57:24.922Z,392.00
2019-03-16T09:58:31.250Z,400.00
2019-03-16T09:59:25.937Z,412.00
2019-03-16T10:00:24.883Z,412.00
2019-03-16T10:01:24.895Z,400.00
2019-03-16T10:02:24.886Z,392.00
2019-03-16T10:03:24.845Z,396.00
2019-03-16T10:04:24.848Z,396.00
2019-03-16T10:05:24.830Z,388.00
2019-03-16T10:06:24.860Z,368.00
2019-03-16T10:07:24.810Z,352.00
2019-03-16T10:08:24.835Z,328.00
2019-03-16T10:09:24.781Z,324.00
2019-03-16T10:10:24.780Z,328.00
2019-03-16T10:11:24.790Z,324.00
2019-03-16T10:12:24.773Z,304.00
2019-03-16T10:13:24.739Z,280.00
2019-03-16T10:14:24.727Z,280.00
2019-03-16T10:15:24.720Z,292.00
2019-03-16T10:16:24.735Z,296.00
2019-03-16T10:17:24.721Z,300.00
2019-03-16T10:18:24.685Z,340.00
2019-03-16T10:19:24.693Z,392.00
2019-03-16T10:20:24.659Z,416.00
2019-03-16T10:21:24.649Z,412.00
2019-03-16T10:22:25.874Z,400.00
2019-03-16T10:23:24.666Z,388.00
2019-03-16T10:24:24.614Z,396.00
2019-03-16T10:25:24.628Z,416.00
2019-03-16T10:26:24.601Z,428.00
2019-03-16T10:27:24.588Z,460.00
2019-03-16T10:28:24.605Z,420.00
2019-03-16T10:29:24.566Z,324.00
2019-03-16T10:30:24.584Z,272.00
2019-03-16T10:31:24.554Z,276.00
2019-03-16T10:32:24.547Z,240.00
2019-03-16T10:33:24.536Z,208.00
2019-03-16T10:34:24.512Z,256.00
2019-03-16T10:35:24.497Z,288.00
2019-03-16T10:36:24.493Z,340.00
2019-03-16T10:37:24.498Z,412.00
2019-03-16T10:38:24.471Z,476.00
2019-03-16T10:39:24.496Z,512.00
2019-03-16T10:40:24.436Z,516.00
2019-03-16T10:41:24.465Z,504.00
2019-03-16T10:42:24.457Z,476.00
2019-03-16T10:43:24.440Z,460.00
2019-03-16T10:44:24.412Z,460.00
2019-03-16T10:45:24.463Z,460.00
2019-03-16T10:46:24.372Z,420.00
2019-03-16T10:47:24.408Z,392.00
2019-03-16T10:48:24.370Z,352.00
2019-03-16T10:49:24.361Z,300.00
2019-03-16T10:50:24.356Z,284.00
2019-03-16T10:51:24.317Z,300.00
2019-03-16T10:52:24.316Z,288.00
2019-03-16T10:53:24.323Z,232.00
2019-03-16T10:54:24.287Z,236.00
2019-03-16T10:55:24.274Z,340.00
2019-03-16T10:56:24.260Z,352.00
2019-03-16T10:57:24.280Z,368.00
2019-03-16T10:58:24.253Z,428.00
2019-03-16T10:59:24.260Z,460.00
2019-03-16T11:00:24.226Z,492.00
2019-03-16T11:01:24.210Z,504.00
2019-03-16T11:02:24.199Z,540.00
2019-03-16T11:03:24.201Z,528.00
2019-03-16T11:04:24.177Z,480.00
2019-03-16T11:05:24.166Z,532.00
2019-03-16T11:06:24.227Z,580.00
2019-03-16T11:07:24.147Z,584.00
2019-03-16T11:08:24.169Z,564.00
2019-03-16T11:09:26.639Z,500.00
2019-03-16T11:10:24.111Z,444.00
2019-03-16T11:11:24.106Z,420.00
2019-03-16T11:12:24.093Z,416.00
2019-03-16T11:13:24.080Z,392.00
2019-03-16T11:14:24.093Z,396.00
2019-03-16T11:15:24.051Z,360.00
2019-03-16T11:16:24.044Z,380.00
2019-03-16T11:17:24.036Z,460.00
2019-03-16T11:18:24.027Z,476.00
2019-03-16T11:19:24.044Z,468.00
2019-03-16T11:20:23.997Z,536.00
2019-03-16T11:21:23.993Z,496.00
2019-03-16T11:22:23.980Z,404.00
2019-03-16T11:23:23.968Z,440.00
2019-03-16T11:24:24.050Z,496.00
2019-03-16T11:25:24.006Z,480.00
2019-03-16T11:26:23.961Z,480.00
2019-03-16T11:27:23.956Z,492.00
2019-03-16T11:28:23.927Z,492.00
2019-03-16T11:29:23.920Z,472.00
2019-03-16T11:30:23.899Z,444.00
2019-03-16T11:31:23.882Z,420.00
2019-03-16T11:32:23.877Z,428.00
2019-03-16T11:33:23.916Z,424.00
2019-03-16T11:34:23.849Z,388.00
2019-03-16T11:35:23.834Z,440.00
2019-03-16T11:36:23.829Z,528.00
2019-03-16T11:37:23.819Z,532.00
2019-03-16T11:38:23.855Z,496.00
2019-03-16T11:39:23.801Z,520.00
2019-03-16T11:40:23.774Z,572.00
2019-03-16T11:41:23.802Z,584.00
2019-03-16T11:42:23.767Z,508.00
2019-03-16T11:43:23.745Z,480.00
2019-03-16T11:44:23.755Z,456.00
2019-03-16T11:45:23.730Z,444.00
2019-03-16T11:46:23.715Z,436.00
2019-03-16T11:47:23.944Z,464.00
2019-03-16T11:48:23.709Z,468.00
2019-03-16T11:49:23.735Z,508.00
2019-03-16T11:50:23.668Z,484.00
2019-03-16T11:51:23.658Z,452.00
2019-03-16T11:52:23.653Z,424.00
2019-03-16T11:53:23.691Z,372.00
2019-03-16T11:54:23.639Z,336.00
2019-03-16T11:55:23.666Z,312.00
2019-03-16T11:56:23.631Z,256.00
2019-03-16T11:57:23.589Z,256.00
2019-03-16T11:58:23.581Z,220.00
2019-03-16T11:59:23.570Z,208.00
2019-03-16T12:00:23.592Z,220.00
2019-03-16T12:01:23.554Z,248.00
2019-03-16T12:02:23.539Z,256.00
2019-03-16T12:03:23.525Z,240.00
2019-03-16T12:04:23.512Z,236.00
2019-03-16T12:05:23.522Z,232.00
2019-03-16T12:06:23.512Z,244.00
2019-03-16T12:07:23.476Z,264.00
2019-03-16T12:08:23.473Z,260.00
2019-03-16T12:09:23.462Z,264.00
2019-03-16T12:10:23.450Z,276.00
2019-03-16T12:11:23.459Z,272.00
2019-03-16T12:12:23.430Z,300.00
2019-03-16T12:13:23.442Z,324.00
2019-03-16T12:14:23.417Z,300.00
2019-03-16T12:15:23.407Z,276.00
2019-03-16T12:16:23.398Z,284.00
2019-03-16T12:17:23.372Z,316.00
2019-03-16T12:18:23.408Z,332.00
2019-03-16T12:19:23.358Z,360.00
2019-03-16T12:20:23.335Z,368.00
2019-03-16T12:21:23.330Z,448.00
2019-03-16T12:22:23.314Z,472.00
2019-03-16T12:23:23.336Z,516.00
2019-03-16T12:24:23.292Z,604.00
2019-03-16T12:25:23.281Z,632.00
2019-03-16T12:26:23.306Z,616.00
2019-03-16T12:27:23.263Z,616.00
2019-03-16T12:28:23.254Z,692.00
2019-03-16T12:29:33.619Z,692.00
2019-03-16T12:30:24.226Z,696.00
2019-03-16T12:31:23.240Z,740.00
2019-03-16T12:32:23.285Z,752.00
2019-03-16T12:33:23.211Z,760.00
2019-03-16T12:34:23.181Z,696.00
2019-03-16T12:35:23.190Z,564.00
2019-03-16T12:36:23.238Z,584.00
2019-03-16T12:37:23.155Z,648.00
2019-03-16T12:38:23.166Z,740.00
2019-03-16T12:39:23.134Z,756.00
2019-03-16T12:40:23.121Z,720.00
2019-03-16T12:41:23.113Z,708.00
2019-03-16T12:42:23.098Z,664.00
2019-03-16T12:43:23.119Z,648.00
2019-03-16T12:44:23.080Z,648.00
2019-03-16T12:45:23.066Z,676.00
2019-03-16T12:46:23.139Z,668.00
2019-03-16T12:47:23.044Z,656.00
2019-03-16T12:48:23.043Z,648.00
2019-03-16T12:49:23.034Z,624.00
2019-03-16T12:50:23.006Z,592.00
2019-03-16T12:51:23.006Z,528.00